createdAt,value
2022-09-22T00:03:01.403Z,102410.38
2022-09-22T00:08:03.068Z,102416.34
2022-09-22T00:13:04.675Z,102405.16
2022-09-22T00:18:06.259Z,102394.13
2022-09-22T00:23:07.953Z,102393.44
2022-09-22T00:28:12.029Z,102394.47
2022-09-22T00:33:13.666Z,102383.63
2022-09-22T00:38:15.263Z,102381.16
2022-09-22T00:43:27.980Z,102383.19
2022-09-22T00:48:33.847Z,102374.19
2022-09-22T00:53:35.921Z,102375.66
2022-09-22T00:58:43.759Z,102368.72
2022-09-22T01:03:46.427Z,102369.00
2022-09-22T01:08:48.203Z,102355.34
2022-09-22T01:13:57.577Z,102356.81
2022-09-22T01:19:27.207Z,102347.41
2022-09-22T01:25:02.452Z,102350.91
2022-09-22T01:30:21.246Z,102338.72
2022-09-22T01:35:54.228Z,102338.31
2022-09-22T01:41:03.888Z,102327.28
2022-09-22T01:46:28.751Z,102324.09
2022-09-22T01:51:37.452Z,102323.69
2022-09-22T01:56:41.989Z,102317.47
2022-09-22T02:01:55.016Z,102313.94
2022-09-22T02:07:09.903Z,102303.53
2022-09-22T02:12:11.501Z,102303.53
2022-09-22T02:17:14.711Z,102306.16
2022-09-22T02:22:16.339Z,102295.44
2022-09-22T02:27:26.436Z,102299.19
2022-09-22T02:32:29.754Z,102293.69
2022-09-22T02:37:56.303Z,102289.09
2022-09-22T02:42:57.846Z,102288.94
2022-09-22T02:48:05.732Z,102296.63
2022-09-22T02:53:13.930Z,102279.38
2022-09-22T02:58:17.250Z,102276.03
2022-09-22T03:03:19.114Z,102280.25
2022-09-22T03:08:20.842Z,102278.53
2022-09-22T03:13:22.459Z,102280.09
2022-09-22T03:18:24.189Z,102274.31
2022-09-22T03:23:25.992Z,102264.75
2022-09-22T03:28:27.655Z,102273.00
2022-09-22T03:33:29.246Z,102262.28
2022-09-22T03:38:30.882Z,102263.59
2022-09-22T03:43:32.465Z,102265.63
2022-09-22T03:48:34.092Z,102261.00
2022-09-22T03:53:36.588Z,102268.53
2022-09-22T03:58:39.235Z,102252.31
2022-09-22T04:03:41.039Z,102265.03
2022-09-22T04:08:42.678Z,102254.31
2022-09-22T04:13:46.642Z,102256.94
2022-09-22T04:18:48.374Z,102258.97
2022-09-22T04:23:50.126Z,102257.22
2022-09-22T04:28:51.787Z,102259.56
2022-09-22T04:33:53.439Z,102246.19
2022-09-22T04:38:55.527Z,102250.97
2022-09-22T04:43:57.663Z,102244.47
2022-09-22T04:48:59.443Z,102241.00
2022-09-22T04:54:01.143Z,102240.56
2022-09-22T04:59:03.241Z,102244.34
2022-09-22T05:04:05.250Z,102241.84
2022-09-22T05:09:07.045Z,102245.63
2022-09-22T05:14:25.615Z,102241.44
2022-09-22T05:19:28.065Z,102234.63
2022-09-22T05:24:29.984Z,102236.22
2022-09-22T05:29:31.832Z,102239.41
2022-09-22T05:34:33.450Z,102244.59
2022-09-22T05:39:43.902Z,102246.63
2022-09-22T05:44:45.490Z,102244.06
2022-09-22T05:49:47.086Z,102245.50
2022-09-22T05:54:48.718Z,102237.97
2022-09-22T05:59:50.372Z,102246.06
2022-09-22T06:04:52.339Z,102243.75
2022-09-22T06:09:53.983Z,102242.91
2022-09-22T06:14:56.639Z,102246.38
2022-09-22T06:20:00.935Z,102254.31
2022-09-22T06:25:03.411Z,102243.31
2022-09-22T06:30:05.434Z,102235.78
2022-09-22T06:35:07.772Z,102226.22
2022-09-22T06:40:11.944Z,102226.34
2022-09-22T06:45:17.748Z,102230.22
2022-09-22T06:50:19.407Z,102226.16
2022-09-22T06:55:20.966Z,102229.06
2022-09-22T07:00:23.003Z,102230.50
2022-09-22T07:05:24.680Z,102224.66
2022-09-22T07:10:26.372Z,102221.75
2022-09-22T07:15:30.074Z,102215.16
2022-09-22T07:20:33.726Z,102224.97
2022-09-22T07:25:35.951Z,102219.84
2022-09-22T07:30:40.208Z,102219.19
2022-09-22T07:35:41.760Z,102215.75
2022-09-22T07:40:52.150Z,102213.06
2022-09-22T07:45:57.239Z,102213.22
2022-09-22T07:51:00.164Z,102212.03
2022-09-22T07:56:12.359Z,102214.28
2022-09-22T08:01:14.826Z,102214.06
2022-09-22T08:06:18.513Z,102211.75
2022-09-22T08:11:22.515Z,102209.78
2022-09-22T08:16:28.304Z,102207.13
2022-09-22T08:21:35.207Z,102205.31
2022-09-22T08:26:38.950Z,102198.13
2022-09-22T08:31:41.901Z,102205.63
2022-09-22T08:36:47.363Z,102193.91
2022-09-22T08:42:09.310Z,102202.69
2022-09-22T08:47:17.161Z,102194.56
2022-09-22T08:52:43.263Z,102196.63
2022-09-22T08:58:09.131Z,102193.28
2022-09-22T09:03:38.906Z,102193.09
2022-09-22T09:09:05.008Z,102185.09
2022-09-22T09:14:09.950Z,102196.16
2022-09-22T09:19:37.850Z,102201.13
2022-09-22T09:30:12.418Z,102198.13
2022-09-22T09:35:16.621Z,102201.88
2022-09-22T09:40:22.105Z,102202.31
2022-09-22T09:45:32.841Z,102195.72
2022-09-22T09:50:36.178Z,102197.75
2022-09-22T09:55:37.774Z,102201.66
2022-09-22T10:00:59.741Z,102191.97
2022-09-22T10:06:06.258Z,102187.75
2022-09-22T10:11:09.992Z,102180.34
2022-09-22T10:16:28.891Z,102168.97
2022-09-22T10:21:30.528Z,102166.59
2022-09-22T10:26:33.484Z,102173.59
2022-09-22T10:31:38.233Z,102154.28
2022-09-22T10:36:45.680Z,102153.44
2022-09-22T10:41:48.995Z,102145.28
2022-09-22T10:47:14.498Z,102142.44
2022-09-22T10:52:35.903Z,102141.13
2022-09-22T10:57:43.575Z,102133.72
2022-09-22T11:02:48.054Z,102135.03
2022-09-22T11:08:26.350Z,102123.72
2022-09-22T11:13:56.427Z,102128.09
2022-09-22T11:19:31.681Z,102126.16
2022-09-22T11:24:57.590Z,102118.94
2022-09-22T11:30:11.695Z,102104.75
2022-09-22T11:35:27.492Z,102096.53
2022-09-22T11:40:45.069Z,102085.03
2022-09-22T11:45:51.245Z,102072.31
2022-09-22T11:51:23.317Z,102069.59
2022-09-22T11:56:47.506Z,102070.44
2022-09-22T12:01:50.948Z,102070.41
2022-09-22T12:06:56.855Z,102060.97
2022-09-22T12:12:01.406Z,102059.25
2022-09-22T12:17:20.008Z,102054.53
2022-09-22T12:22:37.745Z,102040.78
2022-09-22T12:27:40.342Z,102024.22
2022-09-22T12:32:43.000Z,102017.34
2022-09-22T12:37:45.903Z,102009.59
2022-09-22T12:42:51.819Z,102010.25
2022-09-22T12:47:56.907Z,102000.72
2022-09-22T12:53:03.454Z,101992.81
2022-09-22T12:58:28.105Z,102001.25
2022-09-22T13:03:30.598Z,101992.84
2022-09-22T13:08:32.518Z,101984.69
2022-09-22T13:13:41.666Z,101979.09
2022-09-22T13:18:52.321Z,101975.63
2022-09-22T13:23:54.022Z,101956.53
2022-09-22T13:29:11.816Z,101959.72
2022-09-22T13:34:31.117Z,101949.84
2022-09-22T13:39:36.337Z,101959.28
2022-09-22T13:44:40.338Z,101951.59
2022-09-22T13:49:49.548Z,101943.00
2022-09-22T13:55:04.698Z,101945.53
2022-09-22T14:00:08.975Z,101946.00
2022-09-22T14:05:18.895Z,101938.50
2022-09-22T14:10:21.901Z,101943.41
2022-09-22T14:15:33.652Z,101936.47
2022-09-22T14:20:43.472Z,101927.91
2022-09-22T14:25:45.496Z,101919.59
2022-09-22T14:30:47.780Z,101915.28
2022-09-22T14:35:52.189Z,101917.22
2022-09-22T14:40:56.109Z,101918.94
2022-09-22T14:46:00.670Z,101903.03
2022-09-22T14:51:07.407Z,101906.69
2022-09-22T14:56:22.944Z,101906.69
2022-09-22T15:01:49.518Z,101903.88
2022-09-22T15:06:56.435Z,101897.91
2022-09-22T15:12:03.492Z,101898.31
2022-09-22T15:17:44.083Z,101901.69
2022-09-22T15:22:46.355Z,101893.13
2022-09-22T15:27:53.530Z,101887.53
2022-09-22T15:32:55.930Z,101889.03
2022-09-22T15:37:57.712Z,101887.50
2022-09-22T15:43:12.867Z,101883.81
2022-09-22T15:48:24.973Z,101877.13
2022-09-22T15:53:26.888Z,101872.81
2022-09-22T15:58:41.716Z,101870.88
2022-09-22T16:03:44.346Z,101867.41
2022-09-22T16:08:51.713Z,101864.75
2022-09-22T16:13:53.588Z,101864.50
2022-09-22T16:18:56.002Z,101858.03
2022-09-22T16:24:03.603Z,101861.00
2022-09-22T16:29:07.215Z,101865.44
2022-09-22T16:34:09.471Z,101861.97
2022-09-22T16:39:11.156Z,101853.59
2022-09-22T16:44:13.329Z,101861.22
2022-09-22T16:49:20.341Z,101852.63
2022-09-22T16:54:22.314Z,101849.16
2022-09-22T16:59:24.011Z,101844.19
2022-09-22T17:04:25.823Z,101832.16
2022-09-22T17:09:27.505Z,101838.31
2022-09-22T17:14:29.679Z,101831.84
2022-09-22T17:19:31.259Z,101839.03
2022-09-22T17:24:32.931Z,101833.00
2022-09-22T17:29:34.971Z,101835.91
2022-09-22T17:34:38.308Z,101827.94
2022-09-22T17:39:40.187Z,101834.97
2022-09-22T17:44:41.935Z,101830.94
2022-09-22T17:50:02.388Z,101828.44
2022-09-22T17:55:11.835Z,101841.94
2022-09-22T18:00:16.800Z,101830.81
2022-09-22T18:05:22.003Z,101832.88
2022-09-22T18:10:32.197Z,101834.13
2022-09-22T18:15:34.074Z,101827.38
2022-09-22T18:20:35.612Z,101834.38
2022-09-22T18:25:37.260Z,101829.00
2022-09-22T18:30:40.630Z,101834.19
2022-09-22T18:35:46.106Z,101834.09
2022-09-22T18:40:49.399Z,101831.69
2022-09-22T18:45:51.185Z,101835.44
2022-09-22T18:50:54.244Z,101832.66
2022-09-22T18:55:56.611Z,101836.16
2022-09-22T19:00:59.688Z,101838.44
2022-09-22T19:06:02.469Z,101830.69
2022-09-22T19:11:04.317Z,101837.88
2022-09-22T19:16:06.576Z,101832.91
2022-09-22T19:21:14.350Z,101831.75
2022-09-22T19:26:17.201Z,101834.63
2022-09-22T19:31:18.861Z,101831.19
2022-09-22T19:36:20.478Z,101831.28
2022-09-22T19:41:24.128Z,101833.06
2022-09-22T19:46:25.737Z,101824.47
2022-09-22T19:51:27.486Z,101827.63
2022-09-22T19:56:29.090Z,101819.38
2022-09-22T20:01:34.598Z,101818.91
2022-09-22T20:06:36.254Z,101816.34
2022-09-22T20:11:43.932Z,101803.91
2022-09-22T20:16:47.594Z,101793.88
2022-09-22T20:21:51.465Z,101785.97
2022-09-22T20:26:53.278Z,101796.75
2022-09-22T20:31:55.264Z,101790.03
2022-09-22T20:36:57.209Z,101780.56
2022-09-22T20:41:59.807Z,101775.75
2022-09-22T20:47:01.552Z,101772.13
2022-09-22T20:52:03.413Z,101764.19
2022-09-22T20:57:05.785Z,101761.13
2022-09-22T21:02:07.537Z,101756.25
2022-09-22T21:07:10.190Z,101757.50
2022-09-22T21:12:13.536Z,101756.81
2022-09-22T21:17:15.600Z,101748.84
2022-09-22T21:22:17.422Z,101743.72
2022-09-22T21:27:19.807Z,101741.50
2022-09-22T21:32:22.149Z,101735.81
2022-09-22T21:37:25.030Z,101735.34
2022-09-22T21:42:27.681Z,101732.19
2022-09-22T21:47:29.461Z,101732.78
2022-09-22T21:52:31.294Z,101724.81
2022-09-22T21:57:32.935Z,101715.84
2022-09-22T22:02:54.636Z,101705.13
2022-09-22T22:07:56.652Z,101702.63
2022-09-22T22:12:58.292Z,101697.94
2022-09-22T22:17:59.859Z,101693.47
2022-09-22T22:23:01.392Z,101698.50
2022-09-22T22:28:03.074Z,101703.91
2022-09-22T22:33:04.895Z,101699.09
2022-09-22T22:38:06.649Z,101692.22
2022-09-22T22:43:08.254Z,101682.47
2022-09-22T22:48:10.875Z,101691.69
2022-09-22T22:53:13.303Z,101691.34
2022-09-22T22:58:14.913Z,101678.44
2022-09-22T23:03:16.542Z,101680.16
2022-09-22T23:08:18.173Z,101672.88
2022-09-22T23:13:19.828Z,101677.22
2022-09-22T23:18:21.418Z,101667.44
2022-09-22T23:23:23.448Z,101666.91
2022-09-22T23:28:25.747Z,101660.56
2022-09-22T23:33:28.825Z,101661.91
2022-09-22T23:38:32.174Z,101662.59
2022-09-22T23:43:33.810Z,101651.81
2022-09-22T23:48:36.236Z,101652.75
2022-09-22T23:53:38.019Z,101645.28
2022-09-22T23:58:39.605Z,101642.81
